map of KMRT home
KMRT - Airport
Location
City:  Marysville, Ohio, United States
Name:Union County Airport
ICAO:KMRT
FAA LID:MRT

Details
Type:Airport (Airfield)
Use:Public/Civil
Latitude:4013'28"N (40.224500)
Longitude:8321'06"W (-83.351638)
Datum:WGS 1984
Elevation:1020 ft (311 m)
Variation:6.95W (WMM2015 magnetic declination)
-0.04 annual change
Runways:2
Longest:4218 × 75 ft (1286 × 23 m), paved

Time
Time Zone:UTC-5 (DST-4)
Local Time:

Weather
METAR:KMRT 190415Z AUTO 02005KT 5SM OVC006 03/02 A3015 RMK AO2 T00250016

Related Locations
Nearby:
Farthest:YAUG: 11346 mi / 18259 km
Augusta [Augusta Airport], WA, AU

Find:

   beyond  
but within

Other Information
Maps:
NOTAMs:
Links:
Sources:

  
  • flag of United States
  • flag of Ohio
  

Sectional Chart

Flight Planning
at skyvector.com

Satellite Image

Google Maps Satellite view

 

Copyright © 2004-2018 Karl L. Swartz. All rights reserved.
The Great Circle Mapper name and logo are trademarks of the Great Circle Mapper.
All other trademarks mentioned herein belong to their respective owners.
Please see credits for attibutions and further copyright information.

  Follow gcmap on Facebook Follow gcmap on Twitter Follow gcmap on Google+ GCmap on LinkedIn

hCard Microformat

Geo Microformat